sensor_id;sensor_type;location;lat;lon;timestamp;P1;durP1;ratioP1;P2;durP2;ratioP2
9964;SDS011;5023;53.554;9.964;2023-04-01T00:04:45;8.30;;;6.22;;
9964;SDS011;5023;53.554;9.964;2023-04-01T00:09:49;9.25;;;6.85;;
9964;SDS011;5023;53.554;9.964;2023-04-01T00:14:51;8.85;;;6.82;;
9964;SDS011;5023;53.554;9.964;2023-04-01T00:19:54;11.00;;;7.40;;
9964;SDS011;5023;53.554;9.964;2023-04-01T00:24:58;9.00;;;7.95;;
9964;SDS011;5023;53.554;9.964;2023-04-01T00:30:04;11.00;;;8.32;;
9964;SDS011;5023;53.554;9.964;2023-04-01T00:35:07;9.20;;;6.53;;
9964;SDS011;5023;53.554;9.964;2023-04-01T00:40:22;9.07;;;6.65;;
9964;SDS011;5023;53.554;9.964;2023-04-01T00:45:31;9.83;;;6.63;;
9964;SDS011;5023;53.554;9.964;2023-04-01T00:50:50;7.75;;;6.47;;
9964;SDS011;5023;53.554;9.964;2023-04-01T00:56:00;8.73;;;5.82;;
9964;SDS011;5023;53.554;9.964;2023-04-01T01:01:05;9.68;;;5.70;;
9964;SDS011;5023;53.554;9.964;2023-04-01T01:06:11;8.48;;;6.45;;
9964;SDS011;5023;53.554;9.964;2023-04-01T01:11:28;10.57;;;6.63;;
9964;SDS011;5023;53.554;9.964;2023-04-01T01:17:09;9.23;;;7.28;;
9964;SDS011;5023;53.554;9.964;2023-04-01T01:22:29;8.52;;;6.65;;
9964;SDS011;5023;53.554;9.964;2023-04-01T01:27:45;9.32;;;7.32;;
9964;SDS011;5023;53.554;9.964;2023-04-01T01:33:15;10.55;;;7.13;;
9964;SDS011;5023;53.554;9.964;2023-04-01T01:38:38;9.45;;;6.93;;
9964;SDS011;5023;53.554;9.964;2023-04-01T01:43:41;7.57;;;6.60;;
9964;SDS011;5023;53.554;9.964;2023-04-01T01:49:00;8.73;;;6.78;;
9964;SDS011;5023;53.554;9.964;2023-04-01T01:54:13;10.68;;;7.13;;
9964;SDS011;5023;53.554;9.964;2023-04-01T01:59:16;8.85;;;7.20;;
9964;SDS011;5023;53.554;9.964;2023-04-01T02:04:23;9.10;;;7.50;;
9964;SDS011;5023;53.554;9.964;2023-04-01T02:09:30;10.35;;;7.20;;
9964;SDS011;5023;53.554;9.964;2023-04-01T02:14:36;10.13;;;7.45;;
9964;SDS011;5023;53.554;9.964;2023-04-01T02:19:46;10.95;;;8.45;;
9964;SDS011;5023;53.554;9.964;2023-04-01T02:24:53;7.37;;;6.53;;
9964;SDS011;5023;53.554;9.964;2023-04-01T02:29:59;11.93;;;6.93;;
9964;SDS011;5023;53.554;9.964;2023-04-01T02:35:02;8.73;;;6.60;;
9964;SDS011;5023;53.554;9.964;2023-04-01T02:40:08;19.15;;;14.50;;
9964;SDS011;5023;53.554;9.964;2023-04-01T02:45:14;7.80;;;6.47;;
9964;SDS011;5023;53.554;9.964;2023-04-01T02:50:16;7.35;;;6.15;;
9964;SDS011;5023;53.554;9.964;2023-04-01T02:55:20;10.05;;;7.10;;
9964;SDS011;5023;53.554;9.964;2023-04-01T03:00:25;7.63;;;5.73;;
9964;SDS011;5023;53.554;9.964;2023-04-01T03:05:30;8.17;;;6.20;;
9964;SDS011;5023;53.554;9.964;2023-04-01T03:10:34;9.52;;;6.22;;
9964;SDS011;5023;53.554;9.964;2023-04-01T03:15:40;12.25;;;7.18;;
9964;SDS011;5023;53.554;9.964;2023-04-01T03:20:43;7.30;;;6.25;;
9964;SDS011;5023;53.554;9.964;2023-04-01T03:25:50;9.65;;;6.22;;
9964;SDS011;5023;53.554;9.964;2023-04-01T03:30:53;6.97;;;6.15;;
9964;SDS011;5023;53.554;9.964;2023-04-01T03:35:58;7.97;;;5.60;;
9964;SDS011;5023;53.554;9.964;2023-04-01T03:41:07;8.73;;;5.63;;
9964;SDS011;5023;53.554;9.964;2023-04-01T03:46:21;9.20;;;6.40;;
9964;SDS011;5023;53.554;9.964;2023-04-01T03:51:28;8.68;;;6.20;;
9964;SDS011;5023;53.554;9.964;2023-04-01T03:56:38;7.72;;;6.50;;
9964;SDS011;5023;53.554;9.964;2023-04-01T04:01:49;8.48;;;6.50;;
9964;SDS011;5023;53.554;9.964;2023-04-01T04:06:53;10.60;;;7.13;;
9964;SDS011;5023;53.554;9.964;2023-04-01T04:11:58;11.93;;;7.87;;
9964;SDS011;5023;53.554;9.964;2023-04-01T04:17:00;9.53;;;7.70;;
9964;SDS011;5023;53.554;9.964;2023-04-01T04:22:02;10.73;;;7.00;;
9964;SDS011;5023;53.554;9.964;2023-04-01T04:27:06;9.47;;;7.63;;
9964;SDS011;5023;53.554;9.964;2023-04-01T04:32:10;10.25;;;8.43;;
9964;SDS011;5023;53.554;9.964;2023-04-01T04:37:14;10.00;;;7.45;;
9964;SDS011;5023;53.554;9.964;2023-04-01T04:42:19;9.63;;;7.80;;
9964;SDS011;5023;53.554;9.964;2023-04-01T04:47:23;12.73;;;7.97;;
9964;SDS011;5023;53.554;9.964;2023-04-01T04:52:25;10.82;;;8.27;;
9964;SDS011;5023;53.554;9.964;2023-04-01T04:57:29;11.90;;;8.70;;
9964;SDS011;5023;53.554;9.964;2023-04-01T05:02:31;10.05;;;8.68;;
9964;SDS011;5023;53.554;9.964;2023-04-01T05:07:35;16.80;;;14.40;;
9964;SDS011;5023;53.554;9.964;2023-04-01T05:12:39;8.37;;;7.47;;
9964;SDS011;5023;53.554;9.964;2023-04-01T05:17:43;12.73;;;9.93;;
9964;SDS011;5023;53.554;9.964;2023-04-01T05:22:48;9.53;;;8.03;;
9964;SDS011;5023;53.554;9.964;2023-04-01T05:27:58;8.57;;;7.63;;
9964;SDS011;5023;53.554;9.964;2023-04-01T05:33:24;8.70;;;7.30;;
9964;SDS011;5023;53.554;9.964;2023-04-01T05:38:27;7.70;;;6.90;;
9964;SDS011;5023;53.554;9.964;2023-04-01T05:43:30;2.70;;;2.50;;
9964;SDS011;5023;53.554;9.964;2023-04-01T05:48:33;3.33;;;1.60;;
9964;SDS011;5023;53.554;9.964;2023-04-01T05:53:35;1.30;;;1.30;;
9964;SDS011;5023;53.554;9.964;2023-04-01T05:58:49;1.60;;;1.50;;
9964;SDS011;5023;53.554;9.964;2023-04-01T06:03:55;1.53;;;1.43;;
9964;SDS011;5023;53.554;9.964;2023-04-01T06:09:05;1.70;;;1.60;;
9964;SDS011;5023;53.554;9.964;2023-04-01T06:14:19;2.77;;;2.57;;
9964;SDS011;5023;53.554;9.964;2023-04-01T06:19:32;1.97;;;1.77;;
9964;SDS011;5023;53.554;9.964;2023-04-01T06:24:43;1.90;;;1.80;;
9964;SDS011;5023;53.554;9.964;2023-04-01T06:30:02;1.47;;;1.47;;
9964;SDS011;5023;53.554;9.964;2023-04-01T06:46:52;1.73;;;1.63;;
9964;SDS011;5023;53.554;9.964;2023-04-01T06:52:05;1.20;;;1.20;;
9964;SDS011;5023;53.554;9.964;2023-04-01T06:57:22;1.30;;;1.30;;
9964;SDS011;5023;53.554;9.964;2023-04-01T07:02:32;1.50;;;1.40;;
9964;SDS011;5023;53.554;9.964;2023-04-01T07:07:43;1.20;;;1.20;;
9964;SDS011;5023;53.554;9.964;2023-04-01T07:12:50;1.13;;;1.13;;
9964;SDS011;5023;53.554;9.964;2023-04-01T07:17:58;1.07;;;1.07;;
9964;SDS011;5023;53.554;9.964;2023-04-01T07:23:05;1.60;;;1.50;;
9964;SDS011;5023;53.554;9.964;2023-04-01T07:28:15;1.50;;;1.47;;
9964;SDS011;5023;53.554;9.964;2023-04-01T07:33:21;2.03;;;1.87;;
9964;SDS011;5023;53.554;9.964;2023-04-01T07:38:32;1.10;;;1.10;;
9964;SDS011;5023;53.554;9.964;2023-04-01T07:43:44;1.07;;;1.07;;
9964;SDS011;5023;53.554;9.964;2023-04-01T07:48:59;1.80;;;1.70;;
9964;SDS011;5023;53.554;9.964;2023-04-01T07:54:14;4.97;;;4.47;;
9964;SDS011;5023;53.554;9.964;2023-04-01T07:59:23;1.27;;;1.20;;
9964;SDS011;5023;53.554;9.964;2023-04-01T08:04:40;1.67;;;1.13;;
9964;SDS011;5023;53.554;9.964;2023-04-01T08:09:54;1.00;;;1.00;;
9964;SDS011;5023;53.554;9.964;2023-04-01T08:15:09;0.90;;;0.90;;
9964;SDS011;5023;53.554;9.964;2023-04-01T08:20:25;1.35;;;1.25;;
9964;SDS011;5023;53.554;9.964;2023-04-01T08:25:37;0.90;;;0.90;;
9964;SDS011;5023;53.554;9.964;2023-04-01T08:30:42;0.90;;;0.90;;
9964;SDS011;5023;53.554;9.964;2023-04-01T08:35:54;0.93;;;0.93;;
9964;SDS011;5023;53.554;9.964;2023-04-01T08:41:06;1.50;;;1.40;;
9964;SDS011;5023;53.554;9.964;2023-04-01T08:46:30;2.07;;;1.97;;
9964;SDS011;5023;53.554;9.964;2023-04-01T08:57:35;5.40;;;4.90;;
9964;SDS011;5023;53.554;9.964;2023-04-01T09:02:50;5.10;;;4.60;;
9964;SDS011;5023;53.554;9.964;2023-04-01T09:08:17;2.27;;;2.07;;
9964;SDS011;5023;53.554;9.964;2023-04-01T09:13:33;1.30;;;1.30;;
9964;SDS011;5023;53.554;9.964;2023-04-01T09:18:57;2.27;;;2.10;;
9964;SDS011;5023;53.554;9.964;2023-04-01T09:24:14;1.17;;;1.17;;
9964;SDS011;5023;53.554;9.964;2023-04-01T09:29:48;1.30;;;1.17;;
9964;SDS011;5023;53.554;9.964;2023-04-01T09:35:10;2.00;;;1.90;;
9964;SDS011;5023;53.554;9.964;2023-04-01T09:40:28;2.70;;;2.50;;
9964;SDS011;5023;53.554;9.964;2023-04-01T09:45:45;1.70;;;1.60;;
9964;SDS011;5023;53.554;9.964;2023-04-01T09:51:17;2.47;;;2.23;;
9964;SDS011;5023;53.554;9.964;2023-04-01T09:56:39;1.87;;;1.77;;
9964;SDS011;5023;53.554;9.964;2023-04-01T10:08:02;1.83;;;1.73;;
9964;SDS011;5023;53.554;9.964;2023-04-01T10:13:36;1.83;;;1.73;;
9964;SDS011;5023;53.554;9.964;2023-04-01T10:36:05;2.00;;;1.90;;
9964;SDS011;5023;53.554;9.964;2023-04-01T10:47:36;2.70;;;2.50;;
9964;SDS011;5023;53.554;9.964;2023-04-01T10:58:54;1.70;;;1.60;;
9964;SDS011;5023;53.554;9.964;2023-04-01T11:04:44;2.10;;;1.73;;
9964;SDS011;5023;53.554;9.964;2023-04-01T11:16:13;1.70;;;1.60;;
9964;SDS011;5023;53.554;9.964;2023-04-01T11:21:51;2.60;;;2.40;;
9964;SDS011;5023;53.554;9.964;2023-04-01T11:27:18;1.30;;;1.30;;
9964;SDS011;5023;53.554;9.964;2023-04-01T11:32:42;2.07;;;1.90;;
9964;SDS011;5023;53.554;9.964;2023-04-01T11:37:53;1.80;;;1.70;;
9964;SDS011;5023;53.554;9.964;2023-04-01T11:43:04;3.53;;;3.23;;
9964;SDS011;5023;53.554;9.964;2023-04-01T11:48:32;2.43;;;2.27;;
9964;SDS011;5023;53.554;9.964;2023-04-01T11:53:54;2.13;;;2.03;;
9964;SDS011;5023;53.554;9.964;2023-04-01T11:59:08;5.63;;;4.60;;
9964;SDS011;5023;53.554;9.964;2023-04-01T12:04:40;4.33;;;3.47;;
9964;SDS011;5023;53.554;9.964;2023-04-01T12:10:05;6.27;;;4.67;;
9964;SDS011;5023;53.554;9.964;2023-04-01T12:15:23;4.50;;;3.83;;
9964;SDS011;5023;53.554;9.964;2023-04-01T12:20:37;4.30;;;3.60;;
9964;SDS011;5023;53.554;9.964;2023-04-01T12:25:55;8.10;;;7.30;;
9964;SDS011;5023;53.554;9.964;2023-04-01T12:31:25;5.03;;;3.87;;
9964;SDS011;5023;53.554;9.964;2023-04-01T12:42:10;5.27;;;4.77;;
9964;SDS011;5023;53.554;9.964;2023-04-01T12:53:02;10.33;;;7.37;;
9964;SDS011;5023;53.554;9.964;2023-04-01T13:09:50;10.37;;;7.77;;
9964;SDS011;5023;53.554;9.964;2023-04-01T13:20:44;5.57;;;4.83;;
9964;SDS011;5023;53.554;9.964;2023-04-01T13:26:00;3.80;;;3.40;;
9964;SDS011;5023;53.554;9.964;2023-04-01T13:31:14;3.83;;;3.50;;
9964;SDS011;5023;53.554;9.964;2023-04-01T13:36:32;6.03;;;5.10;;
9964;SDS011;5023;53.554;9.964;2023-04-01T13:41:42;11.33;;;7.93;;
9964;SDS011;5023;53.554;9.964;2023-04-01T13:52:53;4.57;;;3.63;;
9964;SDS011;5023;53.554;9.964;2023-04-01T13:58:23;5.03;;;3.73;;
9964;SDS011;5023;53.554;9.964;2023-04-01T14:04:00;4.73;;;4.23;;
9964;SDS011;5023;53.554;9.964;2023-04-01T14:09:30;9.40;;;7.70;;
9964;SDS011;5023;53.554;9.964;2023-04-01T14:14:56;7.10;;;5.07;;
9964;SDS011;5023;53.554;9.964;2023-04-01T14:20:28;5.10;;;4.60;;
9964;SDS011;5023;53.554;9.964;2023-04-01T14:25:50;6.23;;;4.07;;
9964;SDS011;5023;53.554;9.964;2023-04-01T14:31:34;4.30;;;3.90;;
9964;SDS011;5023;53.554;9.964;2023-04-01T14:37:01;7.47;;;6.40;;
9964;SDS011;5023;53.554;9.964;2023-04-01T14:42:29;6.60;;;5.73;;
9964;SDS011;5023;53.554;9.964;2023-04-01T14:47:50;10.20;;;8.07;;
9964;SDS011;5023;53.554;9.964;2023-04-01T14:52:57;5.60;;;4.30;;
9964;SDS011;5023;53.554;9.964;2023-04-01T14:58:16;6.67;;;4.07;;
9964;SDS011;5023;53.554;9.964;2023-04-01T15:03:22;6.33;;;4.80;;
9964;SDS011;5023;53.554;9.964;2023-04-01T15:08:28;4.90;;;4.40;;
9964;SDS011;5023;53.554;9.964;2023-04-01T15:13:49;9.23;;;5.90;;
9964;SDS011;5023;53.554;9.964;2023-04-01T15:19:20;7.73;;;5.10;;
9964;SDS011;5023;53.554;9.964;2023-04-01T15:24:36;6.67;;;5.67;;
9964;SDS011;5023;53.554;9.964;2023-04-01T15:29:58;7.27;;;4.63;;
9964;SDS011;5023;53.554;9.964;2023-04-01T15:35:46;8.27;;;6.07;;
9964;SDS011;5023;53.554;9.964;2023-04-01T15:41:02;7.57;;;5.30;;
9964;SDS011;5023;53.554;9.964;2023-04-01T15:46:14;8.37;;;6.40;;
9964;SDS011;5023;53.554;9.964;2023-04-01T15:57:17;7.97;;;6.67;;
9964;SDS011;5023;53.554;9.964;2023-04-01T16:02:31;10.50;;;7.70;;
9964;SDS011;5023;53.554;9.964;2023-04-01T16:07:54;8.27;;;6.10;;
9964;SDS011;5023;53.554;9.964;2023-04-01T16:13:14;10.83;;;7.37;;
9964;SDS011;5023;53.554;9.964;2023-04-01T16:18:31;9.30;;;6.97;;
9964;SDS011;5023;53.554;9.964;2023-04-01T16:23:54;9.47;;;6.10;;
9964;SDS011;5023;53.554;9.964;2023-04-01T16:29:03;8.27;;;5.87;;
9964;SDS011;5023;53.554;9.964;2023-04-01T16:34:14;7.67;;;6.47;;
9964;SDS011;5023;53.554;9.964;2023-04-01T16:39:26;13.87;;;10.20;;
9964;SDS011;5023;53.554;9.964;2023-04-01T16:44:44;12.30;;;9.10;;
9964;SDS011;5023;53.554;9.964;2023-04-01T16:49:54;8.87;;;5.70;;
9964;SDS011;5023;53.554;9.964;2023-04-01T16:55:15;11.17;;;7.23;;
9964;SDS011;5023;53.554;9.964;2023-04-01T17:00:39;8.13;;;6.13;;
9964;SDS011;5023;53.554;9.964;2023-04-01T17:12:59;9.80;;;6.40;;
9964;SDS011;5023;53.554;9.964;2023-04-01T17:19:08;7.13;;;5.87;;
9964;SDS011;5023;53.554;9.964;2023-04-01T17:25:12;7.53;;;6.03;;
9964;SDS011;5023;53.554;9.964;2023-04-01T17:30:47;12.47;;;9.20;;
9964;SDS011;5023;53.554;9.964;2023-04-01T17:36:34;7.27;;;5.17;;
9964;SDS011;5023;53.554;9.964;2023-04-01T17:42:42;8.77;;;6.07;;
9964;SDS011;5023;53.554;9.964;2023-04-01T17:48:58;5.57;;;5.03;;
9964;SDS011;5023;53.554;9.964;2023-04-01T17:54:30;8.50;;;4.97;;
9964;SDS011;5023;53.554;9.964;2023-04-01T18:00:26;5.87;;;4.67;;
9964;SDS011;5023;53.554;9.964;2023-04-01T18:06:19;7.43;;;5.40;;
9964;SDS011;5023;53.554;9.964;2023-04-01T18:12:01;7.90;;;5.33;;
9964;SDS011;5023;53.554;9.964;2023-04-01T18:17:27;11.53;;;7.40;;
9964;SDS011;5023;53.554;9.964;2023-04-01T18:23:25;8.10;;;6.67;;
9964;SDS011;5023;53.554;9.964;2023-04-01T18:29:17;5.67;;;4.10;;
9964;SDS011;5023;53.554;9.964;2023-04-01T18:35:21;6.77;;;4.87;;
9964;SDS011;5023;53.554;9.964;2023-04-01T18:41:18;7.87;;;5.20;;
9964;SDS011;5023;53.554;9.964;2023-04-01T18:46:59;5.80;;;3.93;;
9964;SDS011;5023;53.554;9.964;2023-04-01T18:53:12;6.93;;;4.67;;
9964;SDS011;5023;53.554;9.964;2023-04-01T18:59:05;7.07;;;6.07;;
9964;SDS011;5023;53.554;9.964;2023-04-01T19:04:50;8.40;;;5.23;;
9964;SDS011;5023;53.554;9.964;2023-04-01T19:10:06;8.27;;;6.30;;
9964;SDS011;5023;53.554;9.964;2023-04-01T19:15:31;7.33;;;5.50;;
9964;SDS011;5023;53.554;9.964;2023-04-01T19:20:59;6.73;;;5.17;;
9964;SDS011;5023;53.554;9.964;2023-04-01T19:26:11;9.23;;;5.60;;
9964;SDS011;5023;53.554;9.964;2023-04-01T19:31:42;7.20;;;5.47;;
9964;SDS011;5023;53.554;9.964;2023-04-01T19:36:55;14.30;;;9.10;;
9964;SDS011;5023;53.554;9.964;2023-04-01T19:42:06;8.47;;;6.00;;
9964;SDS011;5023;53.554;9.964;2023-04-01T19:47:34;6.10;;;4.10;;
9964;SDS011;5023;53.554;9.964;2023-04-01T19:52:48;6.23;;;5.03;;
9964;SDS011;5023;53.554;9.964;2023-04-01T19:58:09;9.77;;;5.80;;
9964;SDS011;5023;53.554;9.964;2023-04-01T20:03:34;6.27;;;4.10;;
9964;SDS011;5023;53.554;9.964;2023-04-01T20:08:56;6.83;;;4.80;;
9964;SDS011;5023;53.554;9.964;2023-04-01T20:14:14;6.70;;;4.07;;
9964;SDS011;5023;53.554;9.964;2023-04-01T20:19:41;8.23;;;4.13;;
9964;SDS011;5023;53.554;9.964;2023-04-01T20:24:49;8.60;;;5.20;;
9964;SDS011;5023;53.554;9.964;2023-04-01T20:35:50;5.27;;;3.90;;
9964;SDS011;5023;53.554;9.964;2023-04-01T20:41:03;8.07;;;6.17;;
9964;SDS011;5023;53.554;9.964;2023-04-01T20:46:18;10.37;;;6.17;;
9964;SDS011;5023;53.554;9.964;2023-04-01T20:51:22;5.60;;;4.23;;
9964;SDS011;5023;53.554;9.964;2023-04-01T20:56:29;5.50;;;3.97;;
9964;SDS011;5023;53.554;9.964;2023-04-01T21:01:47;3.93;;;3.07;;
9964;SDS011;5023;53.554;9.964;2023-04-01T21:07:04;5.47;;;3.73;;
9964;SDS011;5023;53.554;9.964;2023-04-01T21:12:24;6.67;;;3.63;;
9964;SDS011;5023;53.554;9.964;2023-04-01T21:17:38;6.03;;;3.60;;
9964;SDS011;5023;53.554;9.964;2023-04-01T21:23:00;8.37;;;4.40;;
9964;SDS011;5023;53.554;9.964;2023-04-01T21:28:40;4.07;;;2.90;;
9964;SDS011;5023;53.554;9.964;2023-04-01T21:34:15;7.77;;;2.80;;
9964;SDS011;5023;53.554;9.964;2023-04-01T21:39:47;5.97;;;3.17;;
9964;SDS011;5023;53.554;9.964;2023-04-01T21:45:04;3.47;;;2.80;;
9964;SDS011;5023;53.554;9.964;2023-04-01T21:50:37;6.03;;;2.70;;
9964;SDS011;5023;53.554;9.964;2023-04-01T21:56:05;5.07;;;3.07;;
9964;SDS011;5023;53.554;9.964;2023-04-01T22:01:45;4.13;;;2.63;;
9964;SDS011;5023;53.554;9.964;2023-04-01T22:07:53;6.50;;;3.67;;
9964;SDS011;5023;53.554;9.964;2023-04-01T22:13:24;4.60;;;2.60;;
9964;SDS011;5023;53.554;9.964;2023-04-01T22:25:02;7.93;;;3.30;;
9964;SDS011;5023;53.554;9.964;2023-04-01T22:31:02;7.40;;;2.93;;
9964;SDS011;5023;53.554;9.964;2023-04-01T22:37:00;4.70;;;2.60;;
9964;SDS011;5023;53.554;9.964;2023-04-01T22:42:15;7.43;;;2.20;;
9964;SDS011;5023;53.554;9.964;2023-04-01T22:47:55;5.70;;;3.17;;
9964;SDS011;5023;53.554;9.964;2023-04-01T22:53:46;4.10;;;1.90;;
9964;SDS011;5023;53.554;9.964;2023-04-01T22:59:45;2.93;;;2.03;;
9964;SDS011;5023;53.554;9.964;2023-04-01T23:05:10;4.77;;;2.53;;
9964;SDS011;5023;53.554;9.964;2023-04-01T23:10:38;3.17;;;2.07;;
9964;SDS011;5023;53.554;9.964;2023-04-01T23:16:23;6.50;;;2.80;;
9964;SDS011;5023;53.554;9.964;2023-04-01T23:21:39;3.77;;;2.40;;
9964;SDS011;5023;53.554;9.964;2023-04-01T23:27:19;6.10;;;3.33;;
9964;SDS011;5023;53.554;9.964;2023-04-01T23:32:27;3.60;;;1.97;;
9964;SDS011;5023;53.554;9.964;2023-04-01T23:37:30;4.73;;;2.30;;
9964;SDS011;5023;53.554;9.964;2023-04-01T23:42:38;4.43;;;2.47;;
9964;SDS011;5023;53.554;9.964;2023-04-01T23:48:35;3.33;;;2.17;;
9964;SDS011;5023;53.554;9.964;2023-04-01T23:54:10;3.93;;;1.70;;
9964;SDS011;5023;53.554;9.964;2023-04-01T23:59:35;5.17;;;2.03;;
